createdAt,value
2023-04-17T00:01:37.934Z,9.81
2023-04-17T00:06:43.278Z,9.80
2023-04-17T00:11:47.137Z,9.81
2023-04-17T00:16:52.493Z,9.79
2023-04-17T00:21:56.274Z,9.73
2023-04-17T00:27:01.373Z,9.59
2023-04-17T00:32:06.866Z,9.60
2023-04-17T00:37:10.779Z,9.58
2023-04-17T00:42:14.482Z,9.58
2023-04-17T00:47:22.341Z,9.60
2023-04-17T00:52:29.745Z,9.62
2023-04-17T00:57:34.349Z,9.67
2023-04-17T01:02:39.624Z,9.65
2023-04-17T01:07:43.837Z,9.64
2023-04-17T01:12:49.316Z,9.60
2023-04-17T01:17:54.848Z,9.63
2023-04-17T01:22:59.241Z,9.67
2023-04-17T01:28:04.779Z,9.63
2023-04-17T01:33:08.618Z,9.61
2023-04-17T01:38:13.067Z,9.57
2023-04-17T01:43:19.563Z,9.55
2023-04-17T01:48:23.258Z,9.59
2023-04-17T01:53:27.313Z,9.61
2023-04-17T01:58:32.342Z,9.58
2023-04-17T02:03:36.499Z,9.58
2023-04-17T02:08:40.305Z,9.60
2023-04-17T02:13:45.456Z,9.56
2023-04-17T02:18:49.482Z,9.51
2023-04-17T02:23:53.211Z,9.46
2023-04-17T02:28:58.412Z,9.49
2023-04-17T02:34:02.105Z,9.48
2023-04-17T02:39:06.658Z,9.49
2023-04-17T02:44:11.837Z,9.41
2023-04-17T02:49:15.569Z,9.43
2023-04-17T02:54:19.340Z,9.45
2023-04-17T02:59:25.100Z,9.43
2023-04-17T03:04:29.009Z,9.44
2023-04-17T03:09:32.680Z,9.37
2023-04-17T03:14:37.825Z,9.35
2023-04-17T03:19:41.609Z,9.30
2023-04-17T03:24:45.542Z,9.37
2023-04-17T03:29:51.755Z,9.34
2023-04-17T03:34:56.010Z,9.28
2023-04-17T03:39:59.718Z,9.20
2023-04-17T03:45:05.664Z,9.22
2023-04-17T03:50:10.283Z,9.26
2023-04-17T03:55:15.986Z,9.16
2023-04-17T04:00:22.127Z,9.20
2023-04-17T04:05:26.194Z,9.17
2023-04-17T04:10:30.693Z,9.15
2023-04-17T04:15:35.862Z,9.13
2023-04-17T04:20:42.097Z,9.11
2023-04-17T04:25:46.639Z,9.12
2023-04-17T04:30:55.162Z,9.11
2023-04-17T04:36:02.049Z,9.13
2023-04-17T04:41:10.063Z,9.12
2023-04-17T04:46:16.428Z,9.12
2023-04-17T04:51:20.869Z,9.11
2023-04-17T04:56:25.895Z,8.95
2023-04-17T05:01:32.149Z,8.99
2023-04-17T05:06:36.108Z,9.04
2023-04-17T05:11:40.280Z,8.98
2023-04-17T05:16:45.660Z,8.97
2023-04-17T05:21:49.806Z,8.90
2023-04-17T05:26:54.488Z,8.87
2023-04-17T05:31:59.988Z,8.90
2023-04-17T05:37:07.147Z,8.94
2023-04-17T05:42:10.861Z,8.94
2023-04-17T05:47:16.726Z,8.93
2023-04-17T05:52:20.780Z,8.98
2023-04-17T05:57:25.172Z,9.03
2023-04-17T06:02:30.848Z,8.98
2023-04-17T06:07:35.101Z,9.00
2023-04-17T06:12:39.483Z,9.02
2023-04-17T06:17:45.102Z,8.94
2023-04-17T06:22:49.555Z,8.96
2023-04-17T06:27:53.323Z,8.89
2023-04-17T06:32:58.777Z,8.97
2023-04-17T06:38:02.911Z,9.02
2023-04-17T06:43:07.443Z,8.91
2023-04-17T06:48:15.404Z,9.00
2023-04-17T06:53:19.292Z,9.04
2023-04-17T06:58:23.116Z,9.07
2023-04-17T07:03:28.458Z,9.08
2023-04-17T07:08:32.392Z,9.11
2023-04-17T07:13:36.407Z,9.16
2023-04-17T07:18:41.723Z,9.23
2023-04-17T07:23:45.841Z,9.24
2023-04-17T07:28:49.646Z,9.29
2023-04-17T07:33:55.058Z,9.33
2023-04-17T07:38:58.910Z,9.30
2023-04-17T07:44:05.339Z,9.39
2023-04-17T07:49:12.190Z,9.37
2023-04-17T07:54:16.257Z,9.37
2023-04-17T07:59:19.957Z,9.45
2023-04-17T08:04:25.978Z,9.46
2023-04-17T08:09:29.998Z,9.33
2023-04-17T08:14:34.128Z,9.50
2023-04-17T08:19:39.162Z,9.56
2023-04-17T08:24:43.214Z,9.61
2023-04-17T08:29:46.927Z,9.61
2023-04-17T08:34:52.612Z,9.56
2023-04-17T08:39:56.476Z,9.65
2023-04-17T08:45:01.052Z,9.71
2023-04-17T08:50:11.526Z,9.80
2023-04-17T08:55:17.292Z,9.85
2023-04-17T09:00:25.694Z,9.98
2023-04-17T09:05:33.337Z,9.95
2023-04-17T09:10:38.072Z,10.15
2023-04-17T09:15:43.149Z,10.29
2023-04-17T09:20:51.509Z,10.19
2023-04-17T09:26:08.268Z,10.29
2023-04-17T09:31:26.831Z,10.26
2023-04-17T09:36:33.249Z,10.65
2023-04-17T09:41:39.419Z,10.91
2023-04-17T09:46:45.723Z,10.94
2023-04-17T09:51:52.392Z,11.30
2023-04-17T09:56:56.345Z,11.76
2023-04-17T10:02:01.952Z,11.67
2023-04-17T10:07:07.126Z,11.98
2023-04-17T10:12:14.554Z,12.22
2023-04-17T10:17:25.500Z,12.36
2023-04-17T10:22:34.817Z,12.50
2023-04-17T10:27:45.480Z,13.25
2023-04-17T10:33:28.264Z,13.83
2023-04-17T10:38:35.220Z,13.89
2023-04-17T10:43:43.208Z,14.14
2023-04-17T10:48:52.596Z,14.87
2023-04-17T10:53:58.984Z,14.97
2023-04-17T10:59:04.564Z,14.72
2023-04-17T11:04:09.405Z,14.64
2023-04-17T11:09:16.060Z,14.66
2023-04-17T11:14:21.524Z,14.89
2023-04-17T11:19:26.605Z,15.24
2023-04-17T11:24:33.112Z,16.24
2023-04-17T11:29:36.843Z,16.73
2023-04-17T11:34:41.183Z,17.29
2023-04-17T11:39:46.526Z,18.10
2023-04-17T11:44:50.348Z,18.73
2023-04-17T11:49:54.049Z,18.62
2023-04-17T11:54:59.831Z,18.78
2023-04-17T12:00:14.028Z,19.15
2023-04-17T12:05:18.592Z,20.01
2023-04-17T12:10:23.805Z,19.48
2023-04-17T12:15:27.876Z,19.32
2023-04-17T12:20:31.620Z,19.10
2023-04-17T12:25:37.135Z,19.05
2023-04-17T12:30:42.681Z,18.89
2023-04-17T12:35:46.482Z,18.72
2023-04-17T12:40:51.485Z,18.52
2023-04-17T12:45:55.306Z,18.62
2023-04-17T12:50:59.065Z,18.70
2023-04-17T12:56:04.430Z,18.78
2023-04-17T13:01:08.182Z,18.96
2023-04-17T13:06:12.327Z,18.90
2023-04-17T13:11:17.450Z,19.60
2023-04-17T13:16:21.415Z,19.81
2023-04-17T13:21:25.280Z,20.35
2023-04-17T13:26:30.602Z,20.44
2023-04-17T13:31:34.334Z,20.19
2023-04-17T13:36:38.167Z,20.36
2023-04-17T13:41:43.225Z,20.46
2023-04-17T13:46:47.155Z,20.82
2023-04-17T13:51:50.922Z,21.25
2023-04-17T13:56:57.370Z,22.10
2023-04-17T14:02:03.912Z,23.31
2023-04-17T14:07:07.848Z,24.35
2023-04-17T14:12:16.746Z,24.75
2023-04-17T14:17:20.620Z,25.43
2023-04-17T14:22:24.373Z,25.39
2023-04-17T14:27:29.569Z,25.51
2023-04-17T14:32:33.309Z,25.52
2023-04-17T14:37:37.156Z,25.42
2023-04-17T14:42:53.521Z,24.99
2023-04-17T14:47:58.928Z,25.86
2023-04-17T14:53:03.500Z,25.99
2023-04-17T14:58:08.558Z,26.27
2023-04-17T15:03:12.473Z,26.16
2023-04-17T15:08:16.291Z,26.04
2023-04-17T15:13:21.479Z,26.16
2023-04-17T15:18:25.460Z,25.79
2023-04-17T15:23:29.905Z,25.88
2023-04-17T15:28:36.997Z,25.77
2023-04-17T15:33:40.787Z,26.21
2023-04-17T15:38:44.660Z,25.80
2023-04-17T15:43:49.712Z,25.65
2023-04-17T15:49:07.516Z,25.55
2023-04-17T15:54:12.899Z,25.62
2023-04-17T15:59:18.068Z,25.63
2023-04-17T16:04:22.182Z,25.63
2023-04-17T16:09:26.226Z,25.64
2023-04-17T16:14:31.586Z,25.55
2023-04-17T16:19:35.621Z,25.33
2023-04-17T16:24:39.350Z,25.54
2023-04-17T16:29:45.776Z,25.41
2023-04-17T16:34:49.835Z,24.84
2023-04-17T16:39:54.007Z,24.49
2023-04-17T16:44:59.328Z,24.19
2023-04-17T16:50:03.715Z,23.37
2023-04-17T16:55:08.616Z,22.72
2023-04-17T17:00:15.343Z,22.02
2023-04-17T17:05:19.204Z,21.38
2023-04-17T17:10:22.948Z,21.18
2023-04-17T17:15:27.973Z,20.85
2023-04-17T17:20:31.726Z,20.42
2023-04-17T17:25:35.409Z,20.24
2023-04-17T17:30:40.629Z,19.77
2023-04-17T17:35:44.384Z,19.83
2023-04-17T17:40:48.100Z,19.50
2023-04-17T17:45:53.600Z,19.50
2023-04-17T17:50:58.157Z,19.30
2023-04-17T17:56:02.621Z,19.04
2023-04-17T18:01:08.020Z,19.01
2023-04-17T18:06:11.994Z,18.84
2023-04-17T18:11:15.796Z,18.43
2023-04-17T18:16:21.499Z,18.47
2023-04-17T18:21:26.031Z,18.22
2023-04-17T18:26:29.749Z,17.95
2023-04-17T18:31:34.941Z,17.81
2023-04-17T18:36:38.725Z,17.62
2023-04-17T18:41:42.393Z,17.35
2023-04-17T18:46:48.391Z,17.23
2023-04-17T18:51:52.262Z,16.96
2023-04-17T18:56:56.436Z,16.67
2023-04-17T19:02:01.535Z,16.55
2023-04-17T19:07:05.420Z,16.26
2023-04-17T19:12:10.047Z,16.20
2023-04-17T19:17:15.954Z,16.09
2023-04-17T19:22:19.948Z,15.89
2023-04-17T19:27:25.228Z,15.69
2023-04-17T19:32:31.990Z,15.48
2023-04-17T19:37:35.802Z,15.42
2023-04-17T19:42:39.532Z,15.24
2023-04-17T19:47:44.647Z,15.00
2023-04-17T19:52:48.590Z,14.88
2023-04-17T19:57:52.898Z,14.69
2023-04-17T20:02:58.308Z,14.49
2023-04-17T20:08:02.699Z,14.42
2023-04-17T20:13:06.758Z,14.31
2023-04-17T20:18:13.014Z,14.27
2023-04-17T20:23:17.121Z,14.20
2023-04-17T20:28:21.386Z,14.03
2023-04-17T20:33:26.854Z,13.84
2023-04-17T20:38:30.908Z,13.83
2023-04-17T20:43:34.907Z,13.77
2023-04-17T20:48:40.164Z,13.66
2023-04-17T20:53:44.242Z,13.53
2023-04-17T20:58:48.393Z,13.43
2023-04-17T21:03:53.949Z,13.31
2023-04-17T21:08:58.073Z,13.26
2023-04-17T21:14:03.565Z,13.15
2023-04-17T21:19:08.624Z,12.97
2023-04-17T21:24:12.610Z,12.95
2023-04-17T21:29:16.591Z,12.85
2023-04-17T21:34:21.897Z,12.77
2023-04-17T21:39:25.627Z,12.72
2023-04-17T21:44:29.631Z,12.50
2023-04-17T21:49:34.836Z,12.45
2023-04-17T21:54:38.915Z,12.32
2023-04-17T21:59:42.587Z,12.25
2023-04-17T22:04:47.749Z,12.17
2023-04-17T22:09:51.495Z,12.11
2023-04-17T22:14:55.218Z,12.03
2023-04-17T22:20:00.270Z,11.98
2023-04-17T22:25:04.347Z,11.89
2023-04-17T22:30:08.877Z,11.85
2023-04-17T22:35:15.202Z,11.70
2023-04-17T22:40:19.114Z,11.58
2023-04-17T22:45:22.834Z,11.49
2023-04-17T22:50:30.540Z,11.39
2023-04-17T22:55:34.658Z,11.28
2023-04-17T23:00:38.338Z,11.19
2023-04-17T23:05:43.662Z,11.12
2023-04-17T23:10:47.443Z,11.14
2023-04-17T23:15:51.961Z,11.04
2023-04-17T23:20:56.992Z,10.98
2023-04-17T23:26:00.708Z,10.86
2023-04-17T23:31:05.837Z,10.81
2023-04-17T23:36:11.281Z,10.76
2023-04-17T23:41:15.012Z,10.68
2023-04-17T23:46:18.785Z,10.56
2023-04-17T23:51:23.839Z,10.54
2023-04-17T23:56:29.544Z,10.42
